Beallsville, OH

3:09 AM EDT on August 01, 2014 (GMT -0400)
Wheeling-Ohio County (KHLG) Elev 1194 ft | 40.17 °N, 80.65 °W | Change Station

Current weather conditions updated 16 minutes ago

Clear
Clear
61 °F
Feels Like 61 °F
N
6
Wind Variable Wind from SSE

Today is forecast to be Warmer than yesterday. Afternoon showers and thunderstorms.

Today
High -- | Low -- °F
--% Chance of Precip.
Yesterday
High -- | Low -- °F
Precip. -- in
6:22 AM 8:37 PM
Waxing Crescent, 24% visible
Pressure 30.12 in
Visibility 4.0 miles
Clouds Clear
Dew Point 59 °F
Humidity 93%
Rainfall 0.00 in
Snow Depth Not available.
UV 0 out of 12
Pollen 6.20 out of 12
Air Quality Not available.
Flu Activity Not available.
METAR KHLG 010653Z AUTO 15005KT 4SM BR CLR 16/15 A3013 RMK AO2 SLP198 T01610150

More Conditions Fewer Conditions

Pressure 30.12 in
Visibility 4.0 miles
Clouds Clear
Dew Point 59 °F
Humidity 93%
Rainfall 0.00 in
Snow Depth Not available.
UV 0 out of 12
Pollen 6.20 out of 12
Air Quality Not available.
Flu Activity Not available.
METAR KHLG 010653Z AUTO 15005KT 4SM BR CLR 16/15 A3013 RMK AO2 SLP198 T01610150

More Conditions Fewer Conditions

10-Day Weather Forecast

Almanac

Astronomy

Aug. 01, 2014 Rise Set
Actual Time 6:22 AM EDT 8:37 PM EDT
Civil Twilight 5:52 AM EDT 9:07 PM EDT
Nautical Twilight 5:15 AM EDT 9:44 PM EDT
Astronomical Twilight 4:34 AM EDT 10:25 PM EDT
Moon 11:44 AM EDT 11:21 PM EDT
Length of Visible Light 15h 15m
Length of Day
14h 14m
Tomorrow will be 2m 0s shorter.
Waxing Crescent, 24% of the Moon is Illuminated
Today
Waxing Crescent
Aug 3
First Quarter
Aug 10
Full
Aug 17
Last Quarter
Aug 25
New

Today's Extremes

State Highs State Lows

Community

WunderPhotos

Upload Photos

1,739,522 photos uploaded!

Nearby

Snow Depth

Station Depth Elevation
No new snow has been reported.

Earthquake Activity

City Distance Mag. Time & Date
No recent earthquake activity has been reported nearby.
Minimum magnitude displayed is 2.5.

Coastal Water Temperatures

Place Temperature
No Stations Reporting

Nearby Weather Stations

Station Location Temp. Dew Point Humidity Wind Precip. Elev Updated Type
Jerusalem, Jerusalem, OH 58.6 °F 58 °F 98% SSW  at  0.0 mph 0.00 in / hr 1253 ft 3:09 AM EDT Rapid Fire
Shadyside, Ohio, Shadyside, OH 64.0 °F 63 °F 96% SW  at  0.0 mph 0.00 in / hr 669 ft 3:09 AM EDT Rapid Fire
Crawford Heights, Martins Ferry, OH 61.7 °F 61 °F 97% South  at  2.2 mph - / hr 1109 ft 3:00 AM EDT Normal
Kidwell, WV, Sistersville, WV 59.5 °F 58 °F 94% East  at  0.0 mph - / hr 738 ft 3:04 AM EDT Normal
Whitmar Hills, Wheeling, WV 58.5 °F 58 °F 99% ENE  at  0.0 mph 0.00 in / hr 1060 ft 3:05 AM EDT Normal

Show More Stations Show Fewer Stations